Tropical Cyclones
[Index]
Main Index Home Page Stock Weather Photos Extreme Storms Discussion Storm News and Storm Chasing Reports Tropical Cyclones / Hurricanes / Typhoons Weather Data and Links Wild Fires / Bushfires Weather Observation Techniques Weather Picture Catalogue Tornado Pictures and Reports Stock Video Footage and DVDs for sale
Season 1994-1995 Tropical Cyclone VIOLET Track Map
Season 1994-1995 Summaries: [BoM-AU] [JTWC-AU] [JTWC-SIO] [JTWC-SPAC] [JTWC-SH]
<<- Previous TC | BoM 1994-1995 Season | Next TC ->>

click for intensity scale information  Lat/long Grid: Show Hide

 Date Labels: Show Hide

Bureau of Meteorology Tropical Cyclone Data

Name: VIOLET
Number: 774 / 199495_03

03 Mar 1995 06:00 UTC to 08 Mar 1995 00:00 UTC

    date/time    lat    long    hPa   cat  kts
1995-03-03 06   16.0   152.5    995    1    35          
1995-03-03 12   16.6   152.6    990    1    41          
1995-03-03 18   17.0   152.7    990    1    41          
1995-03-04 00   17.3   153.0    985    2    51          
1995-03-04 06   17.8   153.3    985    2    51          
1995-03-04 12   18.2   153.7    980    2    54          
1995-03-04 18   19.0   154.5    975    2    60          
1995-03-05 00   19.8   155.5    970    3    70          
1995-03-05 06   20.8   157.0    965    3    76          
1995-03-05 12   22.2   158.1    960    3    80          
1995-03-05 18   24.1   159.1    965    3    76          
1995-03-06 00   26.2   159.8    970    3    64          
1995-03-06 06   28.0   160.0    970    3    64          
1995-03-06 12   30.1   159.1    975    2    60          
1995-03-06 18   30.5   156.8    980    2    54          
1995-03-07 00   30.2   155.0    980    2    54          
1995-03-07 06   29.5   154.2    985    2    51          
1995-03-07 12   28.9   153.9    988    1    45          
1995-03-07 18   28.6   154.1    990    1    41          
1995-03-08 00   29.2   155.1    994    1    35          
Winds are 10-min average.

Tropical cyclone tracks developed by Michael Bath using data from the Bureau of Meteorology and Google Maps.


[Australian Severe Weather index] [Copyright Notice] [Email Contacts] [Search This Site] [Privacy Policy]
Document: tropical_cyclone_violet.htm Updated: 30 May 2013